Guenther Schulte — VRGK8 — position and weather

sailwx.info

Track history (hours):
 
Tides and Currents Weather Stations Pressure Air Temp Water Temp Dewpoint Dewpoint Depression Visibility Wind Speed Wind Dir Waves Ship Positions

Guenther Schulte

Last reported at 2015-Aug-21 18:27 UTC. Time now 2015-Sep-02 12:56 UTC.
Position S 36°13' E 175°53'.
Warning: this ship's position is 11 days out of date.

Length 231 m; draft 10.9 m.

Type: Ship (hazmat cat C). MMSI: 477728800.

Date/timePositionNaut miles runAvg speedWind from/ knotsBaromVisibWave heightAir tempDewpointWater temp
2015-Aug-21 18:27S 36°13' E 175°53'1617.0
2015-Aug-21 17:30S 35°58' E 175°44'1617.2
2015-Aug-21 16:33S 35°47' E 175°29'  
2015-Aug-16 22:33S 37°18' E 150°12'1717.2
2015-Aug-16 21:32S 37°35' E 150°06'1616.4
2015-Aug-16 20:33S 37°45' E 149°50'1717.3
2015-Aug-16 19:33S 37°56' E 149°34'1917.5
2015-Aug-16 18:28S 38°09' E 149°16'1516.9
2015-Aug-16 17:34S 38°19' E 149°01'1716.9
2015-Aug-16 16:33S 38°30' E 148°44'1717.1
2015-Aug-16 15:34S 38°40' E 148°26'4217.0
2015-Aug-16 13:07S 38°57' E 147°38'1017.2
2015-Aug-16 12:33S 39°01' E 147°26'1616.4
2015-Aug-16 11:33S 39°06' E 147°06'1616.3
2015-Aug-16 10:34S 39°12' E 146°47'1616.5
2015-Aug-16 09:34S 39°16' E 146°26'1716.9
2015-Aug-16 08:34S 39°13' E 146°05'1817.7
2015-Aug-16 07:34S 39°03' E 145°46'10 0.2
2015-Aug-14 13:22S 38°56' E 145°38'1619.3
2015-Aug-14 12:33S 39°03' E 145°56'1919.1
2015-Aug-14 11:33S 39°11' E 146°18'1919.3
2015-Aug-14 10:33S 39°06' E 146°42'2019.5
2015-Aug-14 09:33S 38°59' E 147°06'1919.2
2015-Aug-14 08:33S 38°53' E 147°29'  
Track history (hours):
 
Tides and Currents Weather Stations Pressure Air Temp Water Temp Dewpoint Dewpoint Depression Visibility Wind Speed Wind Dir Waves Ship Positions

Guenther Schulte

Last reported at 2015-Aug-21 18:27 UTC. Time now 2015-Sep-02 12:56 UTC.
Position S 36°13' E 175°53'.
Warning: this ship's position is 11 days out of date.

Length 231 m; draft 10.9 m.

Type: Ship (hazmat cat C). MMSI: 477728800.

Date/timePositionNaut miles runAvg speedWind from/ knotsBaromVisibWave heightAir tempDewpointWater temp
2015-Aug-21 18:27S 36°13' E 175°53'1617.0
2015-Aug-21 17:30S 35°58' E 175°44'1617.2
2015-Aug-21 16:33S 35°47' E 175°29'  
2015-Aug-16 22:33S 37°18' E 150°12'1717.2
2015-Aug-16 21:32S 37°35' E 150°06'1616.4
2015-Aug-16 20:33S 37°45' E 149°50'1717.3
2015-Aug-16 19:33S 37°56' E 149°34'1917.5
2015-Aug-16 18:28S 38°09' E 149°16'1516.9
2015-Aug-16 17:34S 38°19' E 149°01'1716.9
2015-Aug-16 16:33S 38°30' E 148°44'1717.1
2015-Aug-16 15:34S 38°40' E 148°26'4217.0
2015-Aug-16 13:07S 38°57' E 147°38'1017.2
2015-Aug-16 12:33S 39°01' E 147°26'1616.4
2015-Aug-16 11:33S 39°06' E 147°06'1616.3
2015-Aug-16 10:34S 39°12' E 146°47'1616.5
2015-Aug-16 09:34S 39°16' E 146°26'1716.9
2015-Aug-16 08:34S 39°13' E 146°05'1817.7
2015-Aug-16 07:34S 39°03' E 145°46'10 0.2
2015-Aug-14 13:22S 38°56' E 145°38'1619.3
2015-Aug-14 12:33S 39°03' E 145°56'1919.1
2015-Aug-14 11:33S 39°11' E 146°18'1919.3
2015-Aug-14 10:33S 39°06' E 146°42'2019.5
2015-Aug-14 09:33S 38°59' E 147°06'1919.2
2015-Aug-14 08:33S 38°53' E 147°29'  

Dump ship's entire track history